sensor_id;sensor_type;location;lat;lon;timestamp;pressure;altitude;pressure_sealevel;temperature
78905;BMP280;68291;49.602;8.722;2023-07-13T00:00:43;99423.94;;;23.13
78905;BMP280;68291;49.602;8.722;2023-07-13T00:03:39;99434.66;;;23.19
78905;BMP280;68291;49.602;8.722;2023-07-13T00:06:09;99443.22;;;23.21
78905;BMP280;68291;49.602;8.722;2023-07-13T00:09:01;99444.22;;;23.20
78905;BMP280;68291;49.602;8.722;2023-07-13T00:11:44;99445.63;;;23.15
78905;BMP280;68291;49.602;8.722;2023-07-13T00:14:33;99446.28;;;23.17
78905;BMP280;68291;49.602;8.722;2023-07-13T00:17:14;99449.38;;;23.12
78905;BMP280;68291;49.602;8.722;2023-07-13T00:20:08;99445.16;;;23.02
78905;BMP280;68291;49.602;8.722;2023-07-13T00:22:50;99450.34;;;22.94
78905;BMP280;68291;49.602;8.722;2023-07-13T00:25:26;99454.94;;;22.83
78905;BMP280;68291;49.602;8.722;2023-07-13T00:28:20;99451.53;;;22.73
78905;BMP280;68291;49.602;8.722;2023-07-13T00:31:00;99443.47;;;22.57
78905;BMP280;68291;49.602;8.722;2023-07-13T00:33:49;99451.34;;;22.57
78905;BMP280;68291;49.602;8.722;2023-07-13T00:36:34;99455.06;;;22.55
78905;BMP280;68291;49.602;8.722;2023-07-13T00:39:19;99456.47;;;22.49
78905;BMP280;68291;49.602;8.722;2023-07-13T00:42:12;99444.22;;;22.40
78905;BMP280;68291;49.602;8.722;2023-07-13T00:45:07;99453.06;;;22.39
78905;BMP280;68291;49.602;8.722;2023-07-13T00:48:07;99450.34;;;22.32
78905;BMP280;68291;49.602;8.722;2023-07-13T00:51:00;99445.13;;;22.22
78905;BMP280;68291;49.602;8.722;2023-07-13T00:53:41;99451.47;;;22.20
78905;BMP280;68291;49.602;8.722;2023-07-13T00:56:33;99441.00;;;22.20
78905;BMP280;68291;49.602;8.722;2023-07-13T00:59:15;99449.84;;;22.19
78905;BMP280;68291;49.602;8.722;2023-07-13T01:01:48;99447.66;;;22.14
78905;BMP280;68291;49.602;8.722;2023-07-13T01:04:35;99452.03;;;22.14
78905;BMP280;68291;49.602;8.722;2023-07-13T01:07:20;99445.69;;;22.07
78905;BMP280;68291;49.602;8.722;2023-07-13T01:10:00;99446.81;;;22.04
78905;BMP280;68291;49.602;8.722;2023-07-13T01:12:56;99454.13;;;22.01
78905;BMP280;68291;49.602;8.722;2023-07-13T01:16:05;99445.16;;;21.94
78905;BMP280;68291;49.602;8.722;2023-07-13T01:19:01;99450.97;;;21.88
78905;BMP280;68291;49.602;8.722;2023-07-13T01:21:53;99448.50;;;21.77
78905;BMP280;68291;49.602;8.722;2023-07-13T01:24:25;99445.47;;;21.72
78905;BMP280;68291;49.602;8.722;2023-07-13T01:27:21;99448.38;;;21.60
78905;BMP280;68291;49.602;8.722;2023-07-13T01:30:31;99459.59;;;21.43
78905;BMP280;68291;49.602;8.722;2023-07-13T01:33:33;99449.88;;;21.25
78905;BMP280;68291;49.602;8.722;2023-07-13T01:36:23;99457.59;;;21.17
78905;BMP280;68291;49.602;8.722;2023-07-13T01:39:04;99457.72;;;21.06
78905;BMP280;68291;49.602;8.722;2023-07-13T01:41:54;99464.72;;;20.96
78905;BMP280;68291;49.602;8.722;2023-07-13T01:44:49;99467.19;;;20.89
78905;BMP280;68291;49.602;8.722;2023-07-13T01:47:22;99467.72;;;20.83
78905;BMP280;68291;49.602;8.722;2023-07-13T01:50:17;99475.56;;;20.73
78905;BMP280;68291;49.602;8.722;2023-07-13T01:52:49;99475.38;;;20.65
78905;BMP280;68291;49.602;8.722;2023-07-13T01:55:24;99471.03;;;20.55
78905;BMP280;68291;49.602;8.722;2023-07-13T01:58:09;99474.72;;;20.43
78905;BMP280;68291;49.602;8.722;2023-07-13T02:00:55;99477.53;;;20.31
78905;BMP280;68291;49.602;8.722;2023-07-13T02:03:27;99492.22;;;20.23
78905;BMP280;68291;49.602;8.722;2023-07-13T02:06:13;99493.81;;;20.14
78905;BMP280;68291;49.602;8.722;2023-07-13T02:08:50;99490.34;;;20.04
78905;BMP280;68291;49.602;8.722;2023-07-13T02:11:51;99493.97;;;19.92
78905;BMP280;68291;49.602;8.722;2023-07-13T02:14:21;99501.75;;;19.83
78905;BMP280;68291;49.602;8.722;2023-07-13T02:17:18;99504.38;;;19.72
78905;BMP280;68291;49.602;8.722;2023-07-13T02:20:06;99507.50;;;19.66
78905;BMP280;68291;49.602;8.722;2023-07-13T02:22:52;99504.69;;;19.58
78905;BMP280;68291;49.602;8.722;2023-07-13T02:25:30;99504.38;;;19.52
78905;BMP280;68291;49.602;8.722;2023-07-13T02:28:10;99508.28;;;19.47
78905;BMP280;68291;49.602;8.722;2023-07-13T02:30:54;99503.00;;;19.37
78905;BMP280;68291;49.602;8.722;2023-07-13T02:33:28;99511.88;;;19.35
78905;BMP280;68291;49.602;8.722;2023-07-13T02:36:23;99510.97;;;19.25
78905;BMP280;68291;49.602;8.722;2023-07-13T02:39:16;99508.03;;;19.19
78905;BMP280;68291;49.602;8.722;2023-07-13T02:42:08;99503.22;;;19.03
78905;BMP280;68291;49.602;8.722;2023-07-13T02:44:57;99510.44;;;19.00
78905;BMP280;68291;49.602;8.722;2023-07-13T02:47:33;99513.75;;;18.91
78905;BMP280;68291;49.602;8.722;2023-07-13T02:50:05;99507.47;;;18.83
78905;BMP280;68291;49.602;8.722;2023-07-13T02:52:39;99507.22;;;18.75
78905;BMP280;68291;49.602;8.722;2023-07-13T02:55:17;99503.59;;;18.66
78905;BMP280;68291;49.602;8.722;2023-07-13T02:58:02;99499.06;;;18.57
78905;BMP280;68291;49.602;8.722;2023-07-13T03:00:50;99499.19;;;18.56
78905;BMP280;68291;49.602;8.722;2023-07-13T03:03:33;99501.91;;;18.54
78905;BMP280;68291;49.602;8.722;2023-07-13T03:06:16;99507.94;;;18.55
78905;BMP280;68291;49.602;8.722;2023-07-13T03:08:54;99505.22;;;18.56
78905;BMP280;68291;49.602;8.722;2023-07-13T03:11:40;99507.72;;;18.58
78905;BMP280;68291;49.602;8.722;2023-07-13T03:14:25;99504.63;;;18.53
78905;BMP280;68291;49.602;8.722;2023-07-13T03:17:10;99508.44;;;18.71
78905;BMP280;68291;49.602;8.722;2023-07-13T03:19:43;99515.06;;;18.75
78905;BMP280;68291;49.602;8.722;2023-07-13T03:22:42;99506.03;;;18.79
78905;BMP280;68291;49.602;8.722;2023-07-13T03:25:32;99521.47;;;18.82
78905;BMP280;68291;49.602;8.722;2023-07-13T03:28:12;99508.78;;;18.77
78905;BMP280;68291;49.602;8.722;2023-07-13T03:30:46;99520.53;;;18.72
78905;BMP280;68291;49.602;8.722;2023-07-13T03:33:29;99524.81;;;18.62
78905;BMP280;68291;49.602;8.722;2023-07-13T03:36:05;99518.16;;;18.47
78905;BMP280;68291;49.602;8.722;2023-07-13T03:38:59;99517.44;;;18.34
78905;BMP280;68291;49.602;8.722;2023-07-13T03:41:55;99523.13;;;18.28
78905;BMP280;68291;49.602;8.722;2023-07-13T03:44:38;99527.84;;;18.23
78905;BMP280;68291;49.602;8.722;2023-07-13T03:47:25;99527.50;;;18.17
78905;BMP280;68291;49.602;8.722;2023-07-13T03:50:36;99530.09;;;18.17
78905;BMP280;68291;49.602;8.722;2023-07-13T03:53:19;99530.22;;;18.16
78905;BMP280;68291;49.602;8.722;2023-07-13T03:56:00;99505.50;;;17.98
78905;BMP280;68291;49.602;8.722;2023-07-13T03:58:42;99534.59;;;18.15
78905;BMP280;68291;49.602;8.722;2023-07-13T04:01:30;99539.31;;;18.21
78905;BMP280;68291;49.602;8.722;2023-07-13T04:04:09;99540.75;;;18.25
78905;BMP280;68291;49.602;8.722;2023-07-13T04:07:00;99544.22;;;18.25
78905;BMP280;68291;49.602;8.722;2023-07-13T04:09:52;99540.19;;;18.21
78905;BMP280;68291;49.602;8.722;2023-07-13T04:12:35;99535.03;;;18.09
78905;BMP280;68291;49.602;8.722;2023-07-13T04:15:24;99544.06;;;17.93
78905;BMP280;68291;49.602;8.722;2023-07-13T04:18:11;99543.31;;;17.80
78905;BMP280;68291;49.602;8.722;2023-07-13T04:20:59;99541.19;;;17.74
78905;BMP280;68291;49.602;8.722;2023-07-13T04:23:50;99549.84;;;17.75
78905;BMP280;68291;49.602;8.722;2023-07-13T04:26:29;99543.81;;;17.74
78905;BMP280;68291;49.602;8.722;2023-07-13T04:29:18;99555.53;;;17.80
78905;BMP280;68291;49.602;8.722;2023-07-13T04:31:59;99558.75;;;17.83
78905;BMP280;68291;49.602;8.722;2023-07-13T04:34:47;99558.50;;;17.86
78905;BMP280;68291;49.602;8.722;2023-07-13T04:37:39;99556.38;;;17.91
78905;BMP280;68291;49.602;8.722;2023-07-13T04:40:34;99550.97;;;17.94
78905;BMP280;68291;49.602;8.722;2023-07-13T04:43:14;99559.25;;;17.99
78905;BMP280;68291;49.602;8.722;2023-07-13T04:46:06;99558.91;;;18.03
78905;BMP280;68291;49.602;8.722;2023-07-13T04:48:55;99563.81;;;18.08
78905;BMP280;68291;49.602;8.722;2023-07-13T04:51:52;99564.53;;;18.10
78905;BMP280;68291;49.602;8.722;2023-07-13T04:54:39;99565.00;;;18.15
78905;BMP280;68291;49.602;8.722;2023-07-13T04:57:25;99564.56;;;18.20
78905;BMP280;68291;49.602;8.722;2023-07-13T05:00:31;99571.09;;;18.26
78905;BMP280;68291;49.602;8.722;2023-07-13T05:03:10;99563.75;;;18.31
78905;BMP280;68291;49.602;8.722;2023-07-13T05:06:05;99566.25;;;18.32
78905;BMP280;68291;49.602;8.722;2023-07-13T05:08:52;99568.63;;;18.35
78905;BMP280;68291;49.602;8.722;2023-07-13T05:11:38;99564.84;;;18.39
78905;BMP280;68291;49.602;8.722;2023-07-13T05:14:12;99561.53;;;18.48
78905;BMP280;68291;49.602;8.722;2023-07-13T05:16:52;99567.81;;;18.56
78905;BMP280;68291;49.602;8.722;2023-07-13T05:19:44;99570.78;;;18.63
78905;BMP280;68291;49.602;8.722;2023-07-13T05:22:17;99571.97;;;18.70
78905;BMP280;68291;49.602;8.722;2023-07-13T05:24:53;99572.94;;;18.80
78905;BMP280;68291;49.602;8.722;2023-07-13T05:27:45;99576.84;;;18.85
78905;BMP280;68291;49.602;8.722;2023-07-13T05:30:36;99583.59;;;18.87
78905;BMP280;68291;49.602;8.722;2023-07-13T05:33:12;99575.56;;;18.90
78905;BMP280;68291;49.602;8.722;2023-07-13T05:35:43;99582.09;;;18.96
78905;BMP280;68291;49.602;8.722;2023-07-13T05:38:36;99584.94;;;19.04
78905;BMP280;68291;49.602;8.722;2023-07-13T05:41:27;99587.91;;;19.10
78905;BMP280;68291;49.602;8.722;2023-07-13T05:44:06;99594.06;;;19.20
78905;BMP280;68291;49.602;8.722;2023-07-13T05:47:02;99592.97;;;19.33
78905;BMP280;68291;49.602;8.722;2023-07-13T05:49:42;99592.25;;;19.42
78905;BMP280;68291;49.602;8.722;2023-07-13T05:52:24;99589.50;;;19.55
78905;BMP280;68291;49.602;8.722;2023-07-13T05:55:08;99595.75;;;19.63
78905;BMP280;68291;49.602;8.722;2023-07-13T05:57:49;99599.38;;;19.71
78905;BMP280;68291;49.602;8.722;2023-07-13T06:00:29;99598.00;;;19.78
78905;BMP280;68291;49.602;8.722;2023-07-13T06:03:16;99591.03;;;19.88
78905;BMP280;68291;49.602;8.722;2023-07-13T06:05:53;99600.75;;;19.97
78905;BMP280;68291;49.602;8.722;2023-07-13T06:08:34;99606.19;;;20.05
78905;BMP280;68291;49.602;8.722;2023-07-13T06:11:14;99608.03;;;20.14
78905;BMP280;68291;49.602;8.722;2023-07-13T06:13:52;99609.44;;;20.18
78905;BMP280;68291;49.602;8.722;2023-07-13T06:16:31;99613.69;;;20.29
78905;BMP280;68291;49.602;8.722;2023-07-13T06:19:17;99612.22;;;20.36
78905;BMP280;68291;49.602;8.722;2023-07-13T06:21:52;99622.03;;;20.44
78905;BMP280;68291;49.602;8.722;2023-07-13T06:24:25;99622.34;;;20.50
78905;BMP280;68291;49.602;8.722;2023-07-13T06:27:03;99613.16;;;20.56
78905;BMP280;68291;49.602;8.722;2023-07-13T06:29:39;99615.28;;;20.61
78905;BMP280;68291;49.602;8.722;2023-07-13T06:32:25;99616.44;;;20.68
78905;BMP280;68291;49.602;8.722;2023-07-13T06:35:11;99617.47;;;20.77
78905;BMP280;68291;49.602;8.722;2023-07-13T06:37:54;99620.38;;;20.83
78905;BMP280;68291;49.602;8.722;2023-07-13T06:40:37;99620.69;;;20.90
78905;BMP280;68291;49.602;8.722;2023-07-13T06:43:33;99626.78;;;20.99
78905;BMP280;68291;49.602;8.722;2023-07-13T06:46:22;99631.22;;;21.08
78905;BMP280;68291;49.602;8.722;2023-07-13T06:49:04;99637.34;;;21.18
78905;BMP280;68291;49.602;8.722;2023-07-13T06:51:43;99631.13;;;21.19
78905;BMP280;68291;49.602;8.722;2023-07-13T06:54:27;99634.50;;;21.30
78905;BMP280;68291;49.602;8.722;2023-07-13T06:57:16;99626.69;;;21.40
78905;BMP280;68291;49.602;8.722;2023-07-13T06:59:48;99632.94;;;21.48
78905;BMP280;68291;49.602;8.722;2023-07-13T07:02:38;99629.50;;;21.57
78905;BMP280;68291;49.602;8.722;2023-07-13T07:05:10;99633.94;;;21.66
78905;BMP280;68291;49.602;8.722;2023-07-13T07:07:55;99640.03;;;21.76
78905;BMP280;68291;49.602;8.722;2023-07-13T07:10:35;99638.91;;;21.88
78905;BMP280;68291;49.602;8.722;2023-07-13T07:13:23;99647.47;;;21.99
78905;BMP280;68291;49.602;8.722;2023-07-13T07:16:10;99642.50;;;22.05
78905;BMP280;68291;49.602;8.722;2023-07-13T07:18:49;99646.41;;;22.11
78905;BMP280;68291;49.602;8.722;2023-07-13T07:21:36;99637.03;;;22.18
78905;BMP280;68291;49.602;8.722;2023-07-13T07:24:50;99644.34;;;22.24
78905;BMP280;68291;49.602;8.722;2023-07-13T07:27:38;99643.13;;;22.28
78905;BMP280;68291;49.602;8.722;2023-07-13T07:30:27;99643.94;;;22.28
78905;BMP280;68291;49.602;8.722;2023-07-13T07:33:12;99643.53;;;22.33
78905;BMP280;68291;49.602;8.722;2023-07-13T07:36:08;99646.13;;;22.42
78905;BMP280;68291;49.602;8.722;2023-07-13T07:38:43;99648.63;;;22.53
78905;BMP280;68291;49.602;8.722;2023-07-13T07:42:03;99644.19;;;22.63
78905;BMP280;68291;49.602;8.722;2023-07-13T07:44:40;99652.44;;;22.67
78905;BMP280;68291;49.602;8.722;2023-07-13T07:47:35;99645.81;;;22.73
78905;BMP280;68291;49.602;8.722;2023-07-13T07:50:08;99649.94;;;22.85
78905;BMP280;68291;49.602;8.722;2023-07-13T07:52:47;99642.88;;;22.95
78905;BMP280;68291;49.602;8.722;2023-07-13T07:55:19;99656.53;;;23.07
78905;BMP280;68291;49.602;8.722;2023-07-13T07:57:55;99644.34;;;23.16
78905;BMP280;68291;49.602;8.722;2023-07-13T08:00:42;99662.00;;;23.23
78905;BMP280;68291;49.602;8.722;2023-07-13T08:03:36;99660.47;;;23.30
78905;BMP280;68291;49.602;8.722;2023-07-13T08:06:15;99660.47;;;23.30
78905;BMP280;68291;49.602;8.722;2023-07-13T08:08:54;99652.13;;;23.35
78905;BMP280;68291;49.602;8.722;2023-07-13T08:11:36;99656.34;;;23.45
78905;BMP280;68291;49.602;8.722;2023-07-13T08:14:22;99661.03;;;23.51
78905;BMP280;68291;49.602;8.722;2023-07-13T08:17:19;99654.66;;;23.53
78905;BMP280;68291;49.602;8.722;2023-07-13T08:19:52;99663.50;;;23.62
78905;BMP280;68291;49.602;8.722;2023-07-13T08:22:47;99659.75;;;23.64
78905;BMP280;68291;49.602;8.722;2023-07-13T08:25:31;99652.78;;;23.72
78905;BMP280;68291;49.602;8.722;2023-07-13T08:28:17;99654.00;;;23.78
78905;BMP280;68291;49.602;8.722;2023-07-13T08:31:10;99655.38;;;23.82
78905;BMP280;68291;49.602;8.722;2023-07-13T08:33:59;99652.66;;;23.91
78905;BMP280;68291;49.602;8.722;2023-07-13T08:36:45;99647.50;;;23.99
78905;BMP280;68291;49.602;8.722;2023-07-13T08:39:16;99655.22;;;24.01
78905;BMP280;68291;49.602;8.722;2023-07-13T08:41:55;99663.50;;;24.06
78905;BMP280;68291;49.602;8.722;2023-07-13T08:45:01;99649.22;;;24.08
78905;BMP280;68291;49.602;8.722;2023-07-13T08:48:08;99644.69;;;24.18
78905;BMP280;68291;49.602;8.722;2023-07-13T08:50:56;99644.19;;;24.32
78905;BMP280;68291;49.602;8.722;2023-07-13T08:54:02;99641.34;;;24.42
78905;BMP280;68291;49.602;8.722;2023-07-13T08:56:46;99639.28;;;24.54
78905;BMP280;68291;49.602;8.722;2023-07-13T08:59:28;99632.63;;;24.67
78905;BMP280;68291;49.602;8.722;2023-07-13T09:02:25;99635.66;;;24.80
78905;BMP280;68291;49.602;8.722;2023-07-13T09:05:25;99636.44;;;24.90
78905;BMP280;68291;49.602;8.722;2023-07-13T09:08:29;99631.22;;;24.98
78905;BMP280;68291;49.602;8.722;2023-07-13T09:11:36;99636.31;;;24.99
78905;BMP280;68291;49.602;8.722;2023-07-13T09:14:43;99634.56;;;25.08
78905;BMP280;68291;49.602;8.722;2023-07-13T09:17:22;99637.25;;;25.15
78905;BMP280;68291;49.602;8.722;2023-07-13T09:20:01;99633.31;;;25.19
78905;BMP280;68291;49.602;8.722;2023-07-13T09:22:40;99626.91;;;25.22
78905;BMP280;68291;49.602;8.722;2023-07-13T09:25:29;99634.00;;;25.29
78905;BMP280;68291;49.602;8.722;2023-07-13T09:28:40;99634.38;;;25.42
78905;BMP280;68291;49.602;8.722;2023-07-13T09:31:47;99628.34;;;25.49
78905;BMP280;68291;49.602;8.722;2023-07-13T09:34:22;99627.22;;;25.60
78905;BMP280;68291;49.602;8.722;2023-07-13T09:37:31;99622.50;;;25.79
78905;BMP280;68291;49.602;8.722;2023-07-13T09:40:27;99621.72;;;25.94
78905;BMP280;68291;49.602;8.722;2023-07-13T09:43:04;99631.66;;;26.16
78905;BMP280;68291;49.602;8.722;2023-07-13T09:45:38;99635.13;;;26.32
78905;BMP280;68291;49.602;8.722;2023-07-13T09:48:35;99639.94;;;26.52
78905;BMP280;68291;49.602;8.722;2023-07-13T09:51:15;99611.53;;;26.54
78905;BMP280;68291;49.602;8.722;2023-07-13T09:54:00;99632.00;;;26.52
78905;BMP280;68291;49.602;8.722;2023-07-13T09:56:55;99622.91;;;26.39
78905;BMP280;68291;49.602;8.722;2023-07-13T09:59:56;99618.78;;;26.37
78905;BMP280;68291;49.602;8.722;2023-07-13T10:03:04;99626.91;;;26.35
78905;BMP280;68291;49.602;8.722;2023-07-13T10:05:47;99628.69;;;26.35
78905;BMP280;68291;49.602;8.722;2023-07-13T10:08:40;99625.41;;;26.49
78905;BMP280;68291;49.602;8.722;2023-07-13T10:11:24;99622.44;;;26.67
78905;BMP280;68291;49.602;8.722;2023-07-13T10:14:01;99615.81;;;26.79
78905;BMP280;68291;49.602;8.722;2023-07-13T10:17:00;99618.59;;;26.93
78905;BMP280;68291;49.602;8.722;2023-07-13T10:19:49;99621.03;;;27.11
78905;BMP280;68291;49.602;8.722;2023-07-13T10:22:31;99616.50;;;27.27
78905;BMP280;68291;49.602;8.722;2023-07-13T10:25:18;99616.97;;;27.38
78905;BMP280;68291;49.602;8.722;2023-07-13T10:28:13;99617.63;;;27.40
78905;BMP280;68291;49.602;8.722;2023-07-13T10:31:07;99619.78;;;27.29
78905;BMP280;68291;49.602;8.722;2023-07-13T10:34:00;99621.19;;;27.09
78905;BMP280;68291;49.602;8.722;2023-07-13T10:36:56;99611.16;;;26.97
78905;BMP280;68291;49.602;8.722;2023-07-13T10:39:39;99625.22;;;26.97
78905;BMP280;68291;49.602;8.722;2023-07-13T10:42:35;99624.00;;;27.08
78905;BMP280;68291;49.602;8.722;2023-07-13T10:45:17;99630.44;;;27.13
78905;BMP280;68291;49.602;8.722;2023-07-13T10:48:07;99629.63;;;27.05
78905;BMP280;68291;49.602;8.722;2023-07-13T10:50:51;99631.94;;;27.08
78905;BMP280;68291;49.602;8.722;2023-07-13T10:53:36;99638.38;;;27.13
78905;BMP280;68291;49.602;8.722;2023-07-13T10:56:24;99630.13;;;27.08
78905;BMP280;68291;49.602;8.722;2023-07-13T10:59:12;99631.63;;;27.03
78905;BMP280;68291;49.602;8.722;2023-07-13T11:02:11;99624.84;;;27.00
78905;BMP280;68291;49.602;8.722;2023-07-13T11:04:49;99624.19;;;27.06
78905;BMP280;68291;49.602;8.722;2023-07-13T11:07:25;99623.03;;;27.09
78905;BMP280;68291;49.602;8.722;2023-07-13T11:10:52;99615.75;;;27.03
78905;BMP280;68291;49.602;8.722;2023-07-13T11:14:02;99618.03;;;27.14
78905;BMP280;68291;49.602;8.722;2023-07-13T11:16:48;99625.75;;;27.23
78905;BMP280;68291;49.602;8.722;2023-07-13T11:19:51;99620.59;;;27.29
78905;BMP280;68291;49.602;8.722;2023-07-13T11:22:43;99607.16;;;27.47
78905;BMP280;68291;49.602;8.722;2023-07-13T11:25:32;99614.84;;;27.64
78905;BMP280;68291;49.602;8.722;2023-07-13T11:28:25;99626.28;;;27.64
78905;BMP280;68291;49.602;8.722;2023-07-13T11:31:15;99618.59;;;27.47
78905;BMP280;68291;49.602;8.722;2023-07-13T11:34:00;99614.63;;;27.35
78905;BMP280;68291;49.602;8.722;2023-07-13T11:37:18;99606.06;;;27.33
78905;BMP280;68291;49.602;8.722;2023-07-13T11:39:54;99619.78;;;27.45
78905;BMP280;68291;49.602;8.722;2023-07-13T11:42:46;99613.91;;;27.57
78905;BMP280;68291;49.602;8.722;2023-07-13T11:45:22;99621.31;;;27.61
78905;BMP280;68291;49.602;8.722;2023-07-13T11:48:27;99617.56;;;27.56
78905;BMP280;68291;49.602;8.722;2023-07-13T11:51:21;99604.09;;;27.65
78905;BMP280;68291;49.602;8.722;2023-07-13T11:54:06;99585.00;;;27.78
78905;BMP280;68291;49.602;8.722;2023-07-13T11:56:49;99610.81;;;28.06
78905;BMP280;68291;49.602;8.722;2023-07-13T11:59:39;99594.88;;;28.14
78905;BMP280;68291;49.602;8.722;2023-07-13T12:02:33;99590.47;;;28.28
78905;BMP280;68291;49.602;8.722;2023-07-13T12:05:29;99614.59;;;28.33
78905;BMP280;68291;49.602;8.722;2023-07-13T12:08:11;99595.75;;;28.28
78905;BMP280;68291;49.602;8.722;2023-07-13T12:11:15;99605.50;;;28.28
78905;BMP280;68291;49.602;8.722;2023-07-13T12:14:10;99612.22;;;28.38
78905;BMP280;68291;49.602;8.722;2023-07-13T12:17:00;99612.75;;;28.34
78905;BMP280;68291;49.602;8.722;2023-07-13T12:19:39;99617.28;;;28.25
78905;BMP280;68291;49.602;8.722;2023-07-13T12:22:16;99622.66;;;28.18
78905;BMP280;68291;49.602;8.722;2023-07-13T12:24:56;99611.66;;;28.06
78905;BMP280;68291;49.602;8.722;2023-07-13T12:28:20;99612.41;;;28.15
78905;BMP280;68291;49.602;8.722;2023-07-13T12:31:01;99613.94;;;28.31
78905;BMP280;68291;49.602;8.722;2023-07-13T12:34:00;99607.75;;;28.61
78905;BMP280;68291;49.602;8.722;2023-07-13T12:36:56;99606.22;;;28.81
78905;BMP280;68291;49.602;8.722;2023-07-13T12:39:43;99598.81;;;28.91
78905;BMP280;68291;49.602;8.722;2023-07-13T12:42:27;99613.44;;;29.01
78905;BMP280;68291;49.602;8.722;2023-07-13T12:45:16;99613.00;;;29.12
78905;BMP280;68291;49.602;8.722;2023-07-13T12:47:54;99612.22;;;29.26
78905;BMP280;68291;49.602;8.722;2023-07-13T12:50:38;99619.22;;;29.33
78905;BMP280;68291;49.602;8.722;2023-07-13T12:53:16;99619.88;;;29.49
78905;BMP280;68291;49.602;8.722;2023-07-13T12:55:52;99619.94;;;29.56
78905;BMP280;68291;49.602;8.722;2023-07-13T12:59:01;99632.41;;;29.55
78905;BMP280;68291;49.602;8.722;2023-07-13T13:01:53;99630.47;;;29.35
78905;BMP280;68291;49.602;8.722;2023-07-13T13:04:25;99628.47;;;29.08
78905;BMP280;68291;49.602;8.722;2023-07-13T13:07:11;99630.44;;;28.92
78905;BMP280;68291;49.602;8.722;2023-07-13T13:10:13;99626.50;;;28.88
78905;BMP280;68291;49.602;8.722;2023-07-13T13:13:01;99627.00;;;29.20
78905;BMP280;68291;49.602;8.722;2023-07-13T13:16:04;99623.97;;;29.37
78905;BMP280;68291;49.602;8.722;2023-07-13T13:18:41;99621.97;;;29.39
78905;BMP280;68291;49.602;8.722;2023-07-13T13:21:25;99629.75;;;29.27
78905;BMP280;68291;49.602;8.722;2023-07-13T13:24:12;99628.59;;;29.15
78905;BMP280;68291;49.602;8.722;2023-07-13T13:26:59;99624.16;;;29.07
78905;BMP280;68291;49.602;8.722;2023-07-13T13:29:51;99632.28;;;28.92
78905;BMP280;68291;49.602;8.722;2023-07-13T13:32:47;99632.81;;;28.73
78905;BMP280;68291;49.602;8.722;2023-07-13T13:35:42;99649.25;;;28.68
78905;BMP280;68291;49.602;8.722;2023-07-13T13:38:28;99646.84;;;28.59
78905;BMP280;68291;49.602;8.722;2023-07-13T13:41:15;99643.41;;;28.51
78905;BMP280;68291;49.602;8.722;2023-07-13T13:44:00;99650.59;;;28.42
78905;BMP280;68291;49.602;8.722;2023-07-13T13:46:43;99653.13;;;28.36
78905;BMP280;68291;49.602;8.722;2023-07-13T13:49:24;99649.25;;;28.24
78905;BMP280;68291;49.602;8.722;2023-07-13T13:51:58;99651.88;;;28.24
78905;BMP280;68291;49.602;8.722;2023-07-13T13:54:29;99651.19;;;28.30
78905;BMP280;68291;49.602;8.722;2023-07-13T13:57:05;99646.50;;;28.40
78905;BMP280;68291;49.602;8.722;2023-07-13T13:59:51;99641.41;;;28.53
78905;BMP280;68291;49.602;8.722;2023-07-13T14:02:49;99642.19;;;28.61
78905;BMP280;68291;49.602;8.722;2023-07-13T14:05:27;99637.00;;;28.67
78905;BMP280;68291;49.602;8.722;2023-07-13T14:08:24;99637.00;;;28.82
78905;BMP280;68291;49.602;8.722;2023-07-13T14:11:11;99642.53;;;28.94
78905;BMP280;68291;49.602;8.722;2023-07-13T14:13:52;99640.78;;;28.87
78905;BMP280;68291;49.602;8.722;2023-07-13T14:16:44;99647.38;;;28.91
78905;BMP280;68291;49.602;8.722;2023-07-13T14:19:33;99644.53;;;28.92
78905;BMP280;68291;49.602;8.722;2023-07-13T14:22:12;99633.19;;;28.98
78905;BMP280;68291;49.602;8.722;2023-07-13T14:24:45;99639.06;;;29.08
78905;BMP280;68291;49.602;8.722;2023-07-13T14:27:16;99636.00;;;29.19
78905;BMP280;68291;49.602;8.722;2023-07-13T14:30:00;99639.84;;;29.17
78905;BMP280;68291;49.602;8.722;2023-07-13T14:32:34;99632.78;;;29.24
78905;BMP280;68291;49.602;8.722;2023-07-13T14:35:11;99631.25;;;29.15
78905;BMP280;68291;49.602;8.722;2023-07-13T14:37:44;99647.75;;;29.02
78905;BMP280;68291;49.602;8.722;2023-07-13T14:40:32;99637.31;;;29.01
78905;BMP280;68291;49.602;8.722;2023-07-13T14:43:11;99643.72;;;29.06
78905;BMP280;68291;49.602;8.722;2023-07-13T14:45:47;99643.25;;;29.03
78905;BMP280;68291;49.602;8.722;2023-07-13T14:48:49;99637.19;;;29.17
78905;BMP280;68291;49.602;8.722;2023-07-13T14:51:43;99640.47;;;29.47
78905;BMP280;68291;49.602;8.722;2023-07-13T14:54:35;99634.94;;;29.63
78905;BMP280;68291;49.602;8.722;2023-07-13T14:57:35;99640.00;;;29.72
78905;BMP280;68291;49.602;8.722;2023-07-13T15:00:22;99636.38;;;29.65
78905;BMP280;68291;49.602;8.722;2023-07-13T15:03:21;99636.22;;;29.53
78905;BMP280;68291;49.602;8.722;2023-07-13T15:06:00;99640.72;;;29.52
78905;BMP280;68291;49.602;8.722;2023-07-13T15:08:36;99643.09;;;29.62
78905;BMP280;68291;49.602;8.722;2023-07-13T15:11:19;99636.44;;;30.00
78905;BMP280;68291;49.602;8.722;2023-07-13T15:14:02;99635.94;;;30.53
78905;BMP280;68291;49.602;8.722;2023-07-13T15:16:39;99631.94;;;30.63
78905;BMP280;68291;49.602;8.722;2023-07-13T15:19:15;99633.28;;;30.53
78905;BMP280;68291;49.602;8.722;2023-07-13T15:22:04;99625.38;;;30.59
78905;BMP280;68291;49.602;8.722;2023-07-13T15:24:42;99629.66;;;30.81
78905;BMP280;68291;49.602;8.722;2023-07-13T15:27:22;99625.88;;;30.96
78905;BMP280;68291;49.602;8.722;2023-07-13T15:30:11;99621.88;;;31.13
78905;BMP280;68291;49.602;8.722;2023-07-13T15:32:45;99626.25;;;31.27
78905;BMP280;68291;49.602;8.722;2023-07-13T15:35:27;99619.00;;;31.41
78905;BMP280;68291;49.602;8.722;2023-07-13T15:38:20;99623.19;;;31.63
78905;BMP280;68291;49.602;8.722;2023-07-13T15:40:53;99626.66;;;31.57
78905;BMP280;68291;49.602;8.722;2023-07-13T15:43:33;99624.34;;;31.48
78905;BMP280;68291;49.602;8.722;2023-07-13T15:46:25;99618.38;;;31.79
78905;BMP280;68291;49.602;8.722;2023-07-13T15:48:59;99618.66;;;32.23
78905;BMP280;68291;49.602;8.722;2023-07-13T15:51:53;99619.75;;;32.41
78905;BMP280;68291;49.602;8.722;2023-07-13T15:54:49;99613.31;;;32.16
78905;BMP280;68291;49.602;8.722;2023-07-13T15:57:20;99613.91;;;31.99
78905;BMP280;68291;49.602;8.722;2023-07-13T16:00:19;99624.31;;;31.81